createdAt,value
2022-08-14T00:00:02.970Z,1016.76
2022-08-14T00:01:02.981Z,1016.76
2022-08-14T00:02:03.222Z,1016.74
2022-08-14T00:03:02.993Z,1016.77
2022-08-14T00:04:02.985Z,1016.77
2022-08-14T00:05:02.993Z,1016.73
2022-08-14T00:06:02.986Z,1016.72
2022-08-14T00:07:02.981Z,1016.72
2022-08-14T00:08:02.982Z,1016.7
2022-08-14T00:09:02.988Z,1016.7
2022-08-14T00:10:50.475Z,1016.72
2022-08-14T00:11:02.982Z,1016.68
2022-08-14T00:12:02.986Z,1016.71
2022-08-14T00:13:05.027Z,1016.58
2022-08-14T00:14:02.997Z,1016.69
2022-08-14T00:15:03.129Z,1016.72
2022-08-14T00:16:02.977Z,1016.75
2022-08-14T00:17:02.977Z,1016.76
2022-08-14T00:18:03.004Z,1016.75
2022-08-14T00:19:06.841Z,1016.79
2022-08-14T00:20:02.977Z,1016.81
2022-08-14T00:21:03.120Z,1016.78
2022-08-14T00:22:02.977Z,1016.78
2022-08-14T00:23:12.620Z,1016.76
2022-08-14T00:24:02.996Z,1016.76
2022-08-14T00:25:02.986Z,1016.71
2022-08-14T00:26:06.821Z,1016.69
2022-08-14T00:27:02.980Z,1016.67
2022-08-14T00:28:02.983Z,1016.69
2022-08-14T00:29:03.012Z,1016.67
2022-08-14T00:30:02.981Z,1016.67
2022-08-14T00:31:02.984Z,1016.63
2022-08-14T00:32:03.000Z,1016.67
2022-08-14T00:33:14.561Z,1016.63
2022-08-14T00:34:36.830Z,1016.61
2022-08-14T00:35:02.976Z,1016.65
2022-08-14T00:36:35.754Z,1016.63
2022-08-14T00:37:02.988Z,1016.64
2022-08-14T00:38:02.991Z,1016.65
2022-08-14T00:39:03.003Z,1016.66
2022-08-14T00:40:03.059Z,1016.66
2022-08-14T00:41:02.993Z,1016.66
2022-08-14T00:42:02.982Z,1016.64
2022-08-14T00:43:03.228Z,1016.59
2022-08-14T00:44:03.005Z,1016.58
2022-08-14T00:45:02.986Z,1016.54
2022-08-14T00:46:02.980Z,1016.52
2022-08-14T00:47:02.988Z,1016.49
2022-08-14T00:48:02.999Z,1016.5
2022-08-14T00:49:03.033Z,1016.51
2022-08-14T00:50:02.983Z,1016.47
2022-08-14T00:51:02.983Z,1016.49
2022-08-14T00:52:02.991Z,1016.53
2022-08-14T00:53:02.992Z,1016.54
2022-08-14T00:54:03.007Z,1016.51
2022-08-14T00:55:02.980Z,1016.5
2022-08-14T00:56:06.867Z,1016.49
2022-08-14T00:57:02.983Z,1016.48
2022-08-14T00:58:02.987Z,1016.48
2022-08-14T00:59:02.990Z,1016.48
2022-08-14T01:00:02.982Z,1016.45
2022-08-14T01:01:03.013Z,1016.47
2022-08-14T01:02:02.984Z,1016.5
2022-08-14T01:03:02.996Z,1016.5
2022-08-14T01:04:02.993Z,1016.5
2022-08-14T01:05:02.983Z,1016.51
2022-08-14T01:06:02.991Z,1016.47
2022-08-14T01:07:07.359Z,1016.48
2022-08-14T01:08:03.298Z,1016.45
2022-08-14T01:09:02.991Z,1016.51
2022-08-14T01:10:02.992Z,1016.46
2022-08-14T01:11:02.987Z,1016.52
2022-08-14T01:12:03.523Z,1016.48
2022-08-14T01:13:02.979Z,1016.49
2022-08-14T01:14:18.125Z,1016.49
2022-08-14T01:15:02.990Z,1016.47
2022-08-14T01:16:03.130Z,1016.56
2022-08-14T01:17:03.015Z,1016.49
2022-08-14T01:18:03.022Z,1016.49
2022-08-14T01:19:03.036Z,1016.5
2022-08-14T01:20:02.979Z,1016.53
2022-08-14T01:21:02.983Z,1016.51
2022-08-14T01:22:02.995Z,1016.51
2022-08-14T01:23:02.977Z,1016.53
2022-08-14T01:24:02.989Z,1016.54
2022-08-14T01:25:03.061Z,1016.52
2022-08-14T01:26:02.986Z,1016.57
2022-08-14T01:27:02.999Z,1016.53
2022-08-14T01:28:02.991Z,1016.52
2022-08-14T01:29:03.012Z,1016.49
2022-08-14T01:30:04.568Z,1016.51
2022-08-14T01:31:02.988Z,1016.49
2022-08-14T01:32:02.984Z,1016.46
2022-08-14T01:33:02.998Z,1016.47
2022-08-14T01:35:17.422Z,1016.52
2022-08-14T01:35:17.904Z,1016.5
2022-08-14T01:36:05.355Z,1016.48
2022-08-14T01:37:02.995Z,1016.52
2022-08-14T01:38:02.993Z,1016.48
2022-08-14T01:39:03.001Z,1016.51
2022-08-14T01:40:02.984Z,1016.53
2022-08-14T01:41:02.987Z,1016.51
2022-08-14T01:42:02.977Z,1016.52
2022-08-14T01:43:02.982Z,1016.55
2022-08-14T01:44:03.001Z,1016.5
2022-08-14T01:45:04.247Z,1016.49
2022-08-14T01:46:06.927Z,1016.49
2022-08-14T01:47:05.963Z,1016.48
2022-08-14T01:48:03.873Z,1016.46
2022-08-14T01:49:02.994Z,1016.46
2022-08-14T01:50:02.988Z,1016.46
2022-08-14T01:51:02.979Z,1016.43
2022-08-14T01:52:02.989Z,1016.43
2022-08-14T01:53:03.269Z,1016.45
2022-08-14T01:54:02.996Z,1016.45
2022-08-14T01:55:02.981Z,1016.48
2022-08-14T01:56:02.984Z,1016.51
2022-08-14T01:57:02.979Z,1016.49
2022-08-14T01:58:19.689Z,1016.55
2022-08-14T01:59:03.013Z,1016.55
2022-08-14T02:00:03.181Z,1016.6
2022-08-14T02:01:03.033Z,1016.61
2022-08-14T02:02:03.033Z,1016.63
2022-08-14T02:03:03.742Z,1016.6
2022-08-14T02:04:03.001Z,1016.6
2022-08-14T02:05:02.981Z,1016.59
2022-08-14T02:06:04.040Z,1016.55
2022-08-14T02:07:02.990Z,1016.52
2022-08-14T02:08:09.688Z,1016.44
2022-08-14T02:09:02.996Z,1016.42
2022-08-14T02:10:02.983Z,1016.42
2022-08-14T02:11:02.980Z,1016.47
2022-08-14T02:12:02.979Z,1016.42
2022-08-14T02:13:03.004Z,1016.4
2022-08-14T02:14:07.252Z,1016.37
2022-08-14T02:15:02.980Z,1016.32
2022-08-14T02:16:21.923Z,1016.34
2022-08-14T02:17:02.985Z,1016.34
2022-08-14T02:18:03.009Z,1016.35
2022-08-14T02:19:03.013Z,1016.36
2022-08-14T02:20:03.088Z,1016.38
2022-08-14T02:21:02.999Z,1016.38
2022-08-14T02:22:03.420Z,1016.36
2022-08-14T02:23:02.979Z,1016.41
2022-08-14T02:24:02.992Z,1016.4
2022-08-14T02:25:02.991Z,1016.42
2022-08-14T02:26:24.282Z,1016.45
2022-08-14T02:28:23.429Z,1016.48
2022-08-14T02:28:24.312Z,1016.45
2022-08-14T02:29:03.374Z,1016.45
2022-08-14T02:30:03.115Z,1016.43
2022-08-14T02:31:02.980Z,1016.45
2022-08-14T02:32:02.988Z,1016.4
2022-08-14T02:33:02.990Z,1016.37
2022-08-14T02:34:02.999Z,1016.36
2022-08-14T02:35:03.012Z,1016.38
2022-08-14T02:36:05.275Z,1016.37
2022-08-14T02:37:06.758Z,1016.34
2022-08-14T02:38:04.099Z,1016.28
2022-08-14T02:39:02.997Z,1016.34
2022-08-14T02:40:05.607Z,1016.34
2022-08-14T02:41:02.993Z,1016.34
2022-08-14T02:42:04.199Z,1016.32
2022-08-14T02:43:03.686Z,1016.35
2022-08-14T02:44:02.997Z,1016.34
2022-08-14T02:45:02.983Z,1016.34
2022-08-14T02:46:02.978Z,1016.29
2022-08-14T02:47:02.994Z,1016.35
2022-08-14T02:48:02.997Z,1016.32
2022-08-14T02:49:06.307Z,1016.31
2022-08-14T02:50:02.979Z,1016.28
2022-08-14T02:51:02.983Z,1016.35
2022-08-14T02:52:02.992Z,1016.32
2022-08-14T02:53:03.515Z,1016.3
2022-08-14T02:54:03.700Z,1016.29
2022-08-14T02:55:02.981Z,1016.28
2022-08-14T02:56:10.214Z,1016.29
2022-08-14T02:57:16.132Z,1016.32
2022-08-14T02:58:05.994Z,1016.33
2022-08-14T02:59:05.460Z,1016.3
2022-08-14T03:00:02.991Z,1016.29
2022-08-14T03:01:03.043Z,1016.3
2022-08-14T03:02:03.106Z,1016.29
2022-08-14T03:03:07.806Z,1016.27
2022-08-14T03:04:03.004Z,1016.26
2022-08-14T03:05:02.986Z,1016.27
2022-08-14T03:06:02.989Z,1016.3
2022-08-14T03:07:07.108Z,1016.29
2022-08-14T03:08:02.977Z,1016.3
2022-08-14T03:09:02.988Z,1016.33
2022-08-14T03:10:28.128Z,1016.31
2022-08-14T03:11:02.976Z,1016.28
2022-08-14T03:12:05.025Z,1016.3
2022-08-14T03:13:02.974Z,1016.3
2022-08-14T03:14:02.993Z,1016.3
2022-08-14T03:15:02.989Z,1016.27
2022-08-14T03:16:09.030Z,1016.28
2022-08-14T03:17:02.973Z,1016.26
2022-08-14T03:18:03.012Z,1016.21
2022-08-14T03:19:02.997Z,1016.22
2022-08-14T03:20:02.977Z,1016.25
2022-08-14T03:21:02.982Z,1016.2
2022-08-14T03:22:02.981Z,1016.21
2022-08-14T03:23:04.473Z,1016.23
2022-08-14T03:24:02.999Z,1016.22
2022-08-14T03:25:02.974Z,1016.24
2022-08-14T03:26:02.998Z,1016.25
2022-08-14T03:27:02.982Z,1016.21
2022-08-14T03:28:03.006Z,1016.19
2022-08-14T03:29:02.981Z,1016.2
2022-08-14T03:30:05.354Z,1016.14
2022-08-14T03:31:02.976Z,1016.16
2022-08-14T03:32:03.482Z,1016.2
2022-08-14T03:33:02.995Z,1016.18
2022-08-14T03:34:02.989Z,1016.2
2022-08-14T03:35:02.974Z,1016.2
2022-08-14T03:37:28.327Z,1016.16
2022-08-14T03:37:39.071Z,1016.16
2022-08-14T03:39:11.719Z,1016.2
2022-08-14T03:39:14.627Z,1016.19
2022-08-14T03:40:03.031Z,1016.16
2022-08-14T03:41:02.975Z,1016.16
2022-08-14T03:42:02.977Z,1016.16
2022-08-14T03:43:02.983Z,1016.17
2022-08-14T03:45:18.683Z,1016.16
2022-08-14T03:45:27.034Z,1016.17
2022-08-14T03:46:02.983Z,1016.22
2022-08-14T03:47:03.348Z,1016.22
2022-08-14T03:48:02.995Z,1016.25
2022-08-14T03:49:03.070Z,1016.24
2022-08-14T03:50:02.988Z,1016.24
2022-08-14T03:51:02.987Z,1016.27
2022-08-14T03:52:02.984Z,1016.25
2022-08-14T03:53:03.279Z,1016.23
2022-08-14T03:54:02.994Z,1016.24
2022-08-14T03:55:02.979Z,1016.23
2022-08-14T03:56:02.980Z,1016.19
2022-08-14T03:57:03.524Z,1016.19
2022-08-14T03:58:02.978Z,1016.15
2022-08-14T03:59:02.992Z,1016.16
2022-08-14T04:00:03.011Z,1016.2
2022-08-14T04:01:03.010Z,1016.2
2022-08-14T04:02:04.567Z,1016.18
2022-08-14T04:03:02.989Z,1016.21
2022-08-14T04:04:02.999Z,1016.19
2022-08-14T04:05:12.360Z,1016.22
2022-08-14T04:06:02.980Z,1016.23
2022-08-14T04:07:02.978Z,1016.16
2022-08-14T04:08:22.803Z,1016.16
2022-08-14T04:09:02.998Z,1016.16
2022-08-14T04:10:02.986Z,1016.19
2022-08-14T04:11:07.834Z,1016.13
2022-08-14T04:12:02.977Z,1016.08
2022-08-14T04:13:03.069Z,1016.11
2022-08-14T04:14:02.996Z,1016.08
2022-08-14T04:15:02.976Z,1016.02
2022-08-14T04:16:04.976Z,1016.03
2022-08-14T04:17:02.983Z,1015.98
2022-08-14T04:18:03.006Z,1016.04
2022-08-14T04:19:03.001Z,1016.04
2022-08-14T04:20:02.979Z,1016.06
2022-08-14T04:21:04.025Z,1016.03
2022-08-14T04:22:04.273Z,1016.04
2022-08-14T04:23:02.975Z,1015.98
2022-08-14T04:24:02.991Z,1015.97
2022-08-14T04:25:05.129Z,1015.95
2022-08-14T04:26:02.973Z,1015.94
2022-08-14T04:27:02.985Z,1015.92
2022-08-14T04:28:03.554Z,1015.91
2022-08-14T04:29:14.988Z,1015.86
2022-08-14T04:30:02.974Z,1015.88
2022-08-14T04:31:02.978Z,1015.89
2022-08-14T04:33:01.131Z,1015.81
2022-08-14T04:33:07.358Z,1015.84
2022-08-14T04:34:02.990Z,1015.79
2022-08-14T04:35:07.709Z,1015.82
2022-08-14T04:36:02.986Z,1015.78
2022-08-14T04:37:02.974Z,1015.8
2022-08-14T04:38:02.975Z,1015.76
2022-08-14T04:39:02.997Z,1015.75
2022-08-14T04:40:03.259Z,1015.74
2022-08-14T04:41:03.009Z,1015.73
2022-08-14T04:42:02.975Z,1015.74
2022-08-14T04:43:02.994Z,1015.74
2022-08-14T04:44:02.988Z,1015.75
2022-08-14T04:45:02.987Z,1015.73
2022-08-14T04:46:02.978Z,1015.79
2022-08-14T04:47:02.972Z,1015.73
2022-08-14T04:48:02.993Z,1015.75
2022-08-14T04:49:03.007Z,1015.71
2022-08-14T04:50:03.406Z,1015.78
2022-08-14T04:51:03.377Z,1015.78
2022-08-14T04:52:03.137Z,1015.73
2022-08-14T04:53:02.978Z,1015.76
2022-08-14T04:54:02.987Z,1015.81
2022-08-14T04:55:02.999Z,1015.79
2022-08-14T04:56:02.975Z,1015.84
2022-08-14T04:57:02.987Z,1015.8
2022-08-14T04:58:02.980Z,1015.79
2022-08-14T04:59:03.817Z,1015.87
2022-08-14T05:00:02.983Z,1015.86
2022-08-14T05:01:02.977Z,1015.9
2022-08-14T05:02:03.019Z,1015.91
2022-08-14T05:03:03.007Z,1015.83
2022-08-14T05:04:02.981Z,1015.87
2022-08-14T05:05:02.988Z,1015.83
2022-08-14T05:06:03.193Z,1015.82
2022-08-14T05:07:02.982Z,1015.79
2022-08-14T05:08:02.979Z,1015.79
2022-08-14T05:09:03.010Z,1015.76
2022-08-14T05:10:13.250Z,1015.79
2022-08-14T05:11:02.973Z,1015.76
2022-08-14T05:13:11.715Z,1015.73
2022-08-14T05:13:13.281Z,1015.7
2022-08-14T05:14:17.326Z,1015.61
2022-08-14T05:15:02.981Z,1015.68
2022-08-14T05:16:02.983Z,1015.66
2022-08-14T05:17:02.989Z,1015.62
2022-08-14T05:18:16.875Z,1015.58
2022-08-14T05:19:24.899Z,1015.57
2022-08-14T05:21:04.934Z,1015.57
2022-08-14T05:21:54.493Z,1015.53
2022-08-14T05:22:15.775Z,1015.54
2022-08-14T05:23:03.001Z,1015.53
2022-08-14T05:24:03.004Z,1015.5
2022-08-14T05:25:02.987Z,1015.52
2022-08-14T05:26:02.992Z,1015.52
2022-08-14T05:27:02.984Z,1015.52
2022-08-14T05:28:02.978Z,1015.52
2022-08-14T05:29:03.003Z,1015.47
2022-08-14T05:30:02.981Z,1015.45
2022-08-14T05:31:02.984Z,1015.43
2022-08-14T05:32:02.994Z,1015.41
2022-08-14T05:33:02.988Z,1015.4
2022-08-14T05:34:02.999Z,1015.37
2022-08-14T05:35:02.975Z,1015.35
2022-08-14T05:36:02.980Z,1015.38
2022-08-14T05:37:03.481Z,1015.4
2022-08-14T05:38:02.979Z,1015.37
2022-08-14T05:39:03.007Z,1015.37
2022-08-14T05:40:03.053Z,1015.38
2022-08-14T05:41:02.974Z,1015.29
2022-08-14T05:42:09.870Z,1015.26
2022-08-14T05:43:02.978Z,1015.27
2022-08-14T05:44:02.987Z,1015.26
2022-08-14T05:45:04.203Z,1015.24
2022-08-14T05:46:02.988Z,1015.26
2022-08-14T05:47:02.976Z,1015.17
2022-08-14T05:48:02.995Z,1015.21
2022-08-14T05:49:02.990Z,1015.24
2022-08-14T05:50:02.987Z,1015.2
2022-08-14T05:51:02.977Z,1015.24
2022-08-14T05:52:02.987Z,1015.22
2022-08-14T05:53:02.977Z,1015.22
2022-08-14T05:54:10.185Z,1015.21
2022-08-14T05:55:03.003Z,1015.23
2022-08-14T05:56:02.985Z,1015.18
2022-08-14T05:57:02.990Z,1015.15
2022-08-14T05:58:02.993Z,1015.18
2022-08-14T05:59:02.995Z,1015.14
2022-08-14T06:00:02.984Z,1015.07
2022-08-14T06:01:02.986Z,1015.1
2022-08-14T06:05:03.090Z,1015.08
2022-08-14T06:06:02.984Z,1015.06
2022-08-14T06:07:02.973Z,1015.06
2022-08-14T06:08:02.995Z,1015.03
2022-08-14T06:09:02.990Z,1015
2022-08-14T06:10:04.014Z,1014.91
2022-08-14T06:11:02.981Z,1014.89
2022-08-14T06:12:02.976Z,1014.89
2022-08-14T06:13:03.089Z,1014.89
2022-08-14T06:14:02.999Z,1014.89
2022-08-14T06:15:02.982Z,1014.86
2022-08-14T06:16:02.979Z,1014.87
2022-08-14T06:17:02.978Z,1014.87
2022-08-14T06:18:02.982Z,1014.83
2022-08-14T06:19:03.061Z,1014.78
2022-08-14T06:20:02.979Z,1014.81
2022-08-14T06:21:02.977Z,1014.75
2022-08-14T06:22:02.998Z,1014.77
2022-08-14T06:23:02.984Z,1014.72
2022-08-14T06:24:02.985Z,1014.72
2022-08-14T06:25:02.981Z,1014.69
2022-08-14T06:26:02.978Z,1014.68
2022-08-14T06:27:04.690Z,1014.67
2022-08-14T06:28:04.086Z,1014.61
2022-08-14T06:29:02.996Z,1014.57
2022-08-14T06:30:02.984Z,1014.62
2022-08-14T06:31:02.979Z,1014.59
2022-08-14T06:32:37.596Z,1014.54
2022-08-14T06:33:06.739Z,1014.57
2022-08-14T06:35:03.751Z,1014.52
2022-08-14T06:35:12.175Z,1014.52
2022-08-14T06:36:02.981Z,1014.51
2022-08-14T06:37:02.982Z,1014.51
2022-08-14T06:38:04.603Z,1014.48
2022-08-14T06:39:02.993Z,1014.45
2022-08-14T06:40:03.025Z,1014.47
2022-08-14T06:41:02.980Z,1014.52
2022-08-14T06:42:02.984Z,1014.46
2022-08-14T06:43:03.291Z,1014.5
2022-08-14T06:44:02.994Z,1014.46
2022-08-14T06:45:03.022Z,1014.44
2022-08-14T06:46:03.177Z,1014.46
2022-08-14T06:47:03.292Z,1014.42
2022-08-14T06:48:02.984Z,1014.37
2022-08-14T06:49:02.989Z,1014.4
2022-08-14T06:50:03.008Z,1014.38
2022-08-14T06:51:02.976Z,1014.34
2022-08-14T06:52:02.978Z,1014.3
2022-08-14T06:53:02.988Z,1014.3
2022-08-14T06:54:02.990Z,1014.3
2022-08-14T06:55:02.975Z,1014.27
2022-08-14T06:56:02.981Z,1014.22
2022-08-14T06:57:02.978Z,1014.18
2022-08-14T06:58:03.240Z,1014.15
2022-08-14T06:59:02.989Z,1014.16
2022-08-14T07:00:02.986Z,1014.16
2022-08-14T07:01:03.001Z,1014.17
2022-08-14T07:02:02.996Z,1014.17
2022-08-14T07:03:02.984Z,1014.2
2022-08-14T07:04:02.992Z,1014.21
2022-08-14T07:05:05.446Z,1014.18
2022-08-14T07:06:02.981Z,1014.2
2022-08-14T07:07:04.636Z,1014.18
2022-08-14T07:08:02.973Z,1014.16
2022-08-14T07:09:02.985Z,1014.15
2022-08-14T07:10:03.005Z,1014.14
2022-08-14T07:11:02.982Z,1014.12
2022-08-14T07:12:02.974Z,1014.13
2022-08-14T07:13:04.165Z,1014.08
2022-08-14T07:14:02.984Z,1014.09
2022-08-14T07:15:02.991Z,1014.05
2022-08-14T07:16:05.605Z,1014.05
2022-08-14T07:17:02.977Z,1014.03
2022-08-14T07:18:03.092Z,1014.05
2022-08-14T07:19:03.003Z,1014.04
2022-08-14T07:20:02.982Z,1014.01
2022-08-14T07:21:02.980Z,1013.97
2022-08-14T07:22:05.410Z,1013.93
2022-08-14T07:23:07.725Z,1013.92
2022-08-14T07:24:02.988Z,1013.93
2022-08-14T07:25:02.989Z,1013.92
2022-08-14T07:26:02.978Z,1013.91
2022-08-14T07:27:03.008Z,1013.93
2022-08-14T07:28:02.977Z,1013.94
2022-08-14T07:29:02.988Z,1013.84
2022-08-14T07:30:03.009Z,1013.81
2022-08-14T07:31:04.844Z,1013.82
2022-08-14T07:32:02.985Z,1013.76
2022-08-14T07:33:02.982Z,1013.8
2022-08-14T07:34:04.082Z,1013.73
2022-08-14T07:35:03.011Z,1013.76
2022-08-14T07:36:03.374Z,1013.73
2022-08-14T07:37:02.988Z,1013.67
2022-08-14T07:38:03.001Z,1013.75
2022-08-14T07:39:13.160Z,1013.66
2022-08-14T07:40:03.086Z,1013.65
2022-08-14T07:41:03.007Z,1013.65
2022-08-14T07:42:02.997Z,1013.67
2022-08-14T07:47:03.616Z,1013.61
2022-08-14T07:48:02.976Z,1013.63
2022-08-14T07:49:03.017Z,1013.67
2022-08-14T07:50:02.998Z,1013.66
2022-08-14T07:51:10.553Z,1013.66
2022-08-14T07:52:03.330Z,1013.63
2022-08-14T07:53:02.988Z,1013.61
2022-08-14T07:54:03.481Z,1013.64
2022-08-14T07:55:02.989Z,1013.63
2022-08-14T07:56:22.134Z,1013.6
2022-08-14T07:57:06.624Z,1013.61
2022-08-14T07:58:02.983Z,1013.58
2022-08-14T07:59:02.984Z,1013.59
2022-08-14T08:00:03.021Z,1013.58
2022-08-14T08:01:02.981Z,1013.56
2022-08-14T08:02:02.985Z,1013.54
2022-08-14T08:03:03.028Z,1013.56
2022-08-14T08:04:03.380Z,1013.57
2022-08-14T08:05:02.981Z,1013.58
2022-08-14T08:06:02.985Z,1013.59
2022-08-14T08:07:02.995Z,1013.58
2022-08-14T08:08:02.979Z,1013.55
2022-08-14T08:09:03.509Z,1013.52
2022-08-14T08:10:03.100Z,1013.56
2022-08-14T08:11:03.752Z,1013.57
2022-08-14T08:12:04.759Z,1013.53
2022-08-14T08:13:02.990Z,1013.51
2022-08-14T08:14:02.988Z,1013.45
2022-08-14T08:15:07.229Z,1013.46
2022-08-14T08:16:02.982Z,1013.46
2022-08-14T08:17:02.980Z,1013.44
2022-08-14T08:18:04.037Z,1013.43
2022-08-14T08:19:12.863Z,1013.38
2022-08-14T08:20:03.001Z,1013.43
2022-08-14T08:21:02.992Z,1013.38
2022-08-14T08:22:02.980Z,1013.45
2022-08-14T08:23:06.291Z,1013.43
2022-08-14T08:24:03.633Z,1013.4
2022-08-14T08:25:02.997Z,1013.39
2022-08-14T08:26:02.978Z,1013.36
2022-08-14T08:27:02.994Z,1013.31
2022-08-14T08:28:07.991Z,1013.3
2022-08-14T08:29:03.058Z,1013.34
2022-08-14T08:30:03.010Z,1013.23
2022-08-14T08:31:02.978Z,1013.21
2022-08-14T08:32:06.071Z,1013.22
2022-08-14T08:33:03.099Z,1013.18
2022-08-14T08:34:02.992Z,1013.19
2022-08-14T08:35:03.012Z,1013.19
2022-08-14T08:36:02.979Z,1013.2
2022-08-14T08:37:07.253Z,1013.11
2022-08-14T08:38:14.058Z,1013.09
2022-08-14T08:39:18.620Z,1013.06
2022-08-14T08:40:04.239Z,1012.94
2022-08-14T08:41:02.978Z,1012.92
2022-08-14T08:42:02.976Z,1012.87
2022-08-14T08:43:02.981Z,1012.85
2022-08-14T08:44:02.982Z,1012.93
2022-08-14T08:45:03.001Z,1012.85
2022-08-14T08:46:03.004Z,1012.83
2022-08-14T08:47:03.644Z,1012.85
2022-08-14T08:48:02.978Z,1012.89
2022-08-14T08:49:03.001Z,1012.9
2022-08-14T08:50:02.995Z,1012.82
2022-08-14T08:51:02.994Z,1012.75
2022-08-14T08:52:02.987Z,1012.71
2022-08-14T08:53:02.984Z,1012.72
2022-08-14T08:54:02.984Z,1012.7
2022-08-14T08:55:04.671Z,1012.74
2022-08-14T08:56:03.037Z,1012.74
2022-08-14T08:57:02.982Z,1012.65
2022-08-14T08:58:02.973Z,1012.61
2022-08-14T08:59:02.989Z,1012.57
2022-08-14T09:00:03.004Z,1012.55
2022-08-14T09:01:03.071Z,1012.56
2022-08-14T09:02:05.015Z,1012.56
2022-08-14T09:03:02.985Z,1012.52
2022-08-14T09:04:02.997Z,1012.55
2022-08-14T09:05:02.997Z,1012.48
2022-08-14T09:06:02.997Z,1012.46
2022-08-14T09:07:10.923Z,1012.46
2022-08-14T09:08:02.982Z,1012.47
2022-08-14T09:09:02.982Z,1012.4
2022-08-14T09:10:03.675Z,1012.41
2022-08-14T09:11:02.990Z,1012.47
2022-08-14T09:12:02.973Z,1012.49
2022-08-14T09:13:02.979Z,1012.41
2022-08-14T09:14:02.982Z,1012.42
2022-08-14T09:15:03.033Z,1012.42
2022-08-14T09:16:18.561Z,1012.53
2022-08-14T09:17:02.988Z,1012.51
2022-08-14T09:18:02.985Z,1012.53
2022-08-14T09:19:03.029Z,1012.5
2022-08-14T09:20:04.174Z,1012.51
2022-08-14T09:21:02.989Z,1012.4
2022-08-14T09:22:02.987Z,1012.42
2022-08-14T09:23:02.973Z,1012.39
2022-08-14T09:24:28.281Z,1012.36
2022-08-14T09:25:02.993Z,1012.42
2022-08-14T09:26:05.111Z,1012.38
2022-08-14T09:27:02.977Z,1012.36
2022-08-14T09:28:02.979Z,1012.26
2022-08-14T09:29:02.985Z,1012.19
2022-08-14T09:30:31.287Z,1012.25
2022-08-14T09:31:07.288Z,1012.28
2022-08-14T09:32:02.983Z,1012.25
2022-08-14T09:33:09.104Z,1012.23
2022-08-14T09:34:09.274Z,1012.24
2022-08-14T09:35:02.991Z,1012.2
2022-08-14T09:36:02.983Z,1012.22
2022-08-14T09:37:02.979Z,1012.22
2022-08-14T09:38:02.978Z,1012.26
2022-08-14T09:39:02.991Z,1012.24
2022-08-14T09:40:03.867Z,1012.24
2022-08-14T09:41:02.979Z,1012.21
2022-08-14T09:42:20.220Z,1012.22
2022-08-14T09:43:02.973Z,1012.22
2022-08-14T09:44:06.506Z,1012.2
2022-08-14T09:45:08.505Z,1012.18
2022-08-14T09:46:02.986Z,1012.18
2022-08-14T09:47:02.986Z,1012.21
2022-08-14T09:48:02.974Z,1012.24
2022-08-14T09:49:02.995Z,1012.25
2022-08-14T09:50:02.991Z,1012.24
2022-08-14T09:52:02.990Z,1012.18
2022-08-14T09:53:04.002Z,1012.1
2022-08-14T09:54:18.139Z,1012.11
2022-08-14T09:55:03.049Z,1012.12
2022-08-14T09:56:02.994Z,1012.13
2022-08-14T09:57:02.984Z,1012.09
2022-08-14T09:58:02.984Z,1011.89
2022-08-14T09:59:02.978Z,1011.92
2022-08-14T10:00:02.994Z,1011.82
2022-08-14T10:01:06.152Z,1011.84
2022-08-14T10:02:03.021Z,1011.86
2022-08-14T10:03:05.670Z,1011.81
2022-08-14T10:04:02.996Z,1011.77
2022-08-14T10:05:02.992Z,1011.78
2022-08-14T10:06:02.980Z,1011.81
2022-08-14T10:07:03.543Z,1011.83
2022-08-14T10:08:03.040Z,1011.81
2022-08-14T10:09:02.984Z,1011.88
2022-08-14T10:10:02.996Z,1011.9
2022-08-14T10:11:03.335Z,1011.85
2022-08-14T10:12:04.276Z,1011.85
2022-08-14T10:13:02.974Z,1011.86
2022-08-14T10:14:03.004Z,1011.77
2022-08-14T10:15:02.994Z,1011.8
2022-08-14T10:16:02.984Z,1011.77
2022-08-14T10:17:04.781Z,1011.8
2022-08-14T10:18:02.987Z,1011.81
2022-08-14T10:19:02.990Z,1011.75
2022-08-14T10:20:03.006Z,1011.86
2022-08-14T10:21:02.978Z,1011.88
2022-08-14T10:23:12.078Z,1011.91
2022-08-14T10:23:12.191Z,1011.89
2022-08-14T10:24:02.976Z,1011.85
2022-08-14T10:25:03.001Z,1011.88
2022-08-14T10:26:02.973Z,1011.86
2022-08-14T10:27:02.997Z,1011.83
2022-08-14T10:28:02.996Z,1011.82
2022-08-14T10:29:19.453Z,1011.88
2022-08-14T10:30:02.992Z,1011.87
2022-08-14T10:31:02.991Z,1011.82
2022-08-14T10:32:02.982Z,1011.76
2022-08-14T10:33:02.986Z,1011.92
2022-08-14T10:34:02.998Z,1011.96
2022-08-14T10:35:02.993Z,1011.89
2022-08-14T10:36:03.840Z,1011.89
2022-08-14T10:37:02.981Z,1011.82
2022-08-14T10:38:02.981Z,1011.81
2022-08-14T10:39:02.988Z,1011.85
2022-08-14T10:40:05.744Z,1011.78
2022-08-14T10:41:03.098Z,1011.78
2022-08-14T10:42:02.971Z,1011.74
2022-08-14T10:43:02.979Z,1011.65
2022-08-14T10:44:02.974Z,1011.66
2022-08-14T10:45:02.984Z,1011.69
2022-08-14T10:46:58.964Z,1011.68
2022-08-14T10:47:39.186Z,1011.7
2022-08-14T10:48:09.711Z,1011.7
2022-08-14T10:49:04.096Z,1011.68
2022-08-14T10:50:02.990Z,1011.68
2022-08-14T10:51:02.978Z,1011.73
2022-08-14T10:52:02.991Z,1011.74
2022-08-14T10:53:02.974Z,1011.75
2022-08-14T10:54:25.897Z,1011.77
2022-08-14T10:55:02.987Z,1011.69
2022-08-14T10:56:03.619Z,1011.69
2022-08-14T10:57:22.119Z,1011.67
2022-08-14T10:58:21.040Z,1011.64
2022-08-14T11:03:36.117Z,1011.49
2022-08-14T11:04:25.918Z,1011.55
2022-08-14T11:05:21.087Z,1011.5
2022-08-14T11:06:20.979Z,1011.52
2022-08-14T11:07:21.346Z,1011.57
2022-08-14T11:08:20.997Z,1011.53
2022-08-14T11:09:21.003Z,1011.49
2022-08-14T11:10:21.035Z,1011.5
2022-08-14T11:11:20.983Z,1011.49
2022-08-14T11:12:34.567Z,1011.42
2022-08-14T11:13:20.987Z,1011.5
2022-08-14T11:14:22.637Z,1011.43
2022-08-14T11:15:20.996Z,1011.46
2022-08-14T11:16:20.985Z,1011.41
2022-08-14T11:17:21.756Z,1011.39
2022-08-14T11:18:32.370Z,1011.32
2022-08-14T11:19:21.172Z,1011.37
2022-08-14T11:20:21.027Z,1011.35
2022-08-14T11:21:21.343Z,1011.38
2022-08-14T11:22:55.964Z,1011.31
2022-08-14T11:23:20.987Z,1011.32
2022-08-14T11:24:54.182Z,1011.35
2022-08-14T11:25:21.393Z,1011.37
2022-08-14T11:26:20.997Z,1011.33
2022-08-14T11:27:22.129Z,1011.35
2022-08-14T11:28:20.982Z,1011.33
2022-08-14T11:29:20.968Z,1011.35
2022-08-14T11:30:49.802Z,1011.36
2022-08-14T11:31:22.023Z,1011.3
2022-08-14T11:32:20.994Z,1011.3
2022-08-14T11:33:20.983Z,1011.3
2022-08-14T11:34:31.871Z,1011.26
2022-08-14T11:35:21.001Z,1011.23
2022-08-14T11:36:20.975Z,1011.26
2022-08-14T11:37:31.592Z,1011.24
2022-08-14T11:38:20.961Z,1011.18
2022-08-14T11:39:22.912Z,1011.22
2022-08-14T11:40:28.411Z,1011.26
2022-08-14T11:41:20.978Z,1011.19
2022-08-14T11:42:57.730Z,1011.21
2022-08-14T11:43:29.366Z,1011.18
2022-08-14T11:44:45.593Z,1011.19
2022-08-14T11:45:29.933Z,1011.11
2022-08-14T11:46:30.259Z,1011.11
2022-08-14T11:47:27.366Z,1011.03
2022-08-14T11:49:18.953Z,1011.06
2022-08-14T11:50:33.832Z,1011.06
2022-08-14T11:51:17.708Z,1011.06
2022-08-14T11:52:17.726Z,1011.05
2022-08-14T11:53:17.682Z,1011.03
2022-08-14T11:54:19.538Z,1011.03
2022-08-14T11:55:21.153Z,1011.08
2022-08-14T11:56:17.716Z,1011.01
2022-08-14T11:57:18.629Z,1010.99
2022-08-14T11:58:23.781Z,1010.98
2022-08-14T11:59:17.697Z,1010.96
2022-08-14T12:00:19.746Z,1010.97
2022-08-14T12:01:17.699Z,1010.96
2022-08-14T12:03:10.963Z,1010.93
2022-08-14T12:03:26.931Z,1010.93
2022-08-14T12:04:32.479Z,1010.91
2022-08-14T12:05:17.768Z,1010.97
2022-08-14T12:06:28.589Z,1011.02
2022-08-14T12:07:17.696Z,1010.97
2022-08-14T12:08:18.118Z,1010.91
2022-08-14T12:09:17.679Z,1010.96
2022-08-14T12:10:27.145Z,1010.96
2022-08-14T12:11:17.702Z,1010.91
2022-08-14T12:12:35.553Z,1010.91
2022-08-14T12:13:17.832Z,1010.94
2022-08-14T12:14:30.981Z,1010.93
2022-08-14T12:15:17.689Z,1010.87
2022-08-14T12:16:20.881Z,1010.83
2022-08-14T12:17:17.681Z,1010.79
2022-08-14T12:18:19.594Z,1010.81
2022-08-14T12:19:17.682Z,1010.83
2022-08-14T12:20:32.065Z,1010.81
2022-08-14T12:21:19.442Z,1010.77